» Metar & Tafor

16 November 2020
METAR
Pukul : 04.00 UTC
Isi :

METAR WAGI 180400Z 31004KT 9999 SCT014 28/23 Q1009 NOSIG=


10 Juni 2019
TAFOR
Pukul : 06 - 18 UTC
Isi :

TAF WAGI 170500Z 1706/1718 30005KT 9999 SCT015 TEMPO 1709/1713 20005KT 3000 -RA FEW013 BKN014=


Hal: << First | < Prev | 1 | Next > | Last >>